createdAt,value
2022-11-04T00:02:59.480Z,96096.75
2022-11-04T00:08:20.359Z,96094.09
2022-11-04T00:13:25.193Z,96098.94
2022-11-04T00:18:28.656Z,96081.38
2022-11-04T00:23:49.606Z,96078.25
2022-11-04T00:28:54.373Z,96080.41
2022-11-04T00:33:59.831Z,96077.94
2022-11-04T00:39:03.234Z,96071.16
2022-11-04T00:44:08.197Z,96064.03
2022-11-04T00:49:11.521Z,96065.91
2022-11-04T00:54:15.149Z,96070.72
2022-11-04T00:59:20.239Z,96083.47
2022-11-04T01:04:23.674Z,96102.53
2022-11-04T01:09:27.244Z,96105.34
2022-11-04T01:14:32.349Z,96107.84
2022-11-04T01:19:36.030Z,96119.41
2022-11-04T01:24:39.503Z,96125.69
2022-11-04T01:29:44.468Z,96122.72
2022-11-04T01:34:48.319Z,96124.88
2022-11-04T01:39:51.794Z,96129.19
2022-11-04T01:44:59.688Z,96120.06
2022-11-04T01:50:08.535Z,96102.34
2022-11-04T01:55:15.442Z,96101.31
2022-11-04T02:00:20.657Z,96115.56
2022-11-04T02:05:24.517Z,96133.00
2022-11-04T02:10:30.326Z,96140.16
2022-11-04T02:15:46.424Z,96148.84
2022-11-04T02:21:07.438Z,96144.75
2022-11-04T02:26:43.187Z,96146.84
2022-11-04T02:31:55.328Z,96150.69
2022-11-04T02:37:07.843Z,96154.66
2022-11-04T02:42:18.649Z,96160.28
2022-11-04T02:47:27.225Z,96171.72
2022-11-04T02:52:34.893Z,96167.91
2022-11-04T02:57:41.916Z,96151.00
2022-11-04T03:02:52.273Z,96165.72
2022-11-04T03:07:59.176Z,96161.88
2022-11-04T03:13:07.198Z,96180.59
2022-11-04T03:18:19.473Z,96183.44
2022-11-04T03:23:23.273Z,96183.38
2022-11-04T03:28:36.371Z,96184.75
2022-11-04T03:33:46.947Z,96193.28
2022-11-04T03:38:51.460Z,96201.16
2022-11-04T03:43:54.866Z,96213.97
2022-11-04T03:49:00.851Z,96210.56
2022-11-04T03:54:04.772Z,96205.38
2022-11-04T03:59:23.995Z,96194.09
2022-11-04T04:04:31.655Z,96194.25
2022-11-04T04:09:40.867Z,96193.56
2022-11-04T04:14:48.225Z,96207.56
2022-11-04T04:19:57.376Z,96222.72
2022-11-04T04:25:22.273Z,96230.53
2022-11-04T04:30:25.986Z,96240.72
2022-11-04T04:35:43.080Z,96231.84
2022-11-04T04:41:08.796Z,96242.41
2022-11-04T04:46:13.380Z,96252.19
2022-11-04T04:51:18.320Z,96264.28
2022-11-04T04:56:22.046Z,96258.47
2022-11-04T05:01:25.817Z,96273.94
2022-11-04T05:06:30.819Z,96280.56
2022-11-04T05:11:34.461Z,96279.59
2022-11-04T05:16:40.774Z,96283.44
2022-11-04T05:21:45.851Z,96274.00
2022-11-04T05:26:49.541Z,96271.56
2022-11-04T05:31:53.804Z,96281.41
2022-11-04T05:37:00.474Z,96291.00
2022-11-04T05:42:06.454Z,96289.66
2022-11-04T05:47:10.636Z,96303.84
2022-11-04T05:52:15.768Z,96297.66
2022-11-04T05:57:19.398Z,96312.13
2022-11-04T06:02:23.491Z,96323.75
2022-11-04T06:07:28.597Z,96325.09
2022-11-04T06:12:32.307Z,96329.56
2022-11-04T06:17:36.197Z,96322.88
2022-11-04T06:22:41.056Z,96326.78
2022-11-04T06:27:44.608Z,96338.63
2022-11-04T06:32:48.307Z,96346.09
2022-11-04T06:37:53.436Z,96327.97
2022-11-04T06:42:56.870Z,96321.38
2022-11-04T06:48:00.264Z,96346.56
2022-11-04T06:53:05.807Z,96369.22
2022-11-04T06:58:09.892Z,96369.22
2022-11-04T07:03:13.445Z,96386.00
2022-11-04T07:08:18.947Z,96393.16
2022-11-04T07:13:22.480Z,96387.69
2022-11-04T07:18:25.881Z,96381.53
2022-11-04T07:23:30.789Z,96390.16
2022-11-04T07:28:34.425Z,96422.56
2022-11-04T07:33:37.987Z,96424.88
2022-11-04T07:38:42.981Z,96414.06
2022-11-04T07:43:50.402Z,96433.72
2022-11-04T07:48:53.840Z,96445.53
2022-11-04T07:53:59.431Z,96448.47
2022-11-04T07:59:02.997Z,96453.88
2022-11-04T08:04:07.240Z,96460.41
2022-11-04T08:09:12.258Z,96461.41
2022-11-04T08:14:15.779Z,96456.94
2022-11-04T08:19:19.268Z,96461.06
2022-11-04T08:24:25.247Z,96452.78
2022-11-04T08:29:28.672Z,96419.84
2022-11-04T08:34:32.230Z,96412.91
2022-11-04T08:39:37.198Z,96384.41
2022-11-04T08:44:40.792Z,96371.78
2022-11-04T08:49:44.458Z,96372.25
2022-11-04T08:54:52.282Z,96361.97
2022-11-04T08:59:59.727Z,96363.28
2022-11-04T09:05:03.418Z,96364.81
2022-11-04T09:10:09.028Z,96380.63
2022-11-04T09:15:13.390Z,96418.50
2022-11-04T09:20:17.779Z,96434.53
2022-11-04T09:25:22.843Z,96445.97
2022-11-04T09:30:26.697Z,96454.00
2022-11-04T09:35:30.579Z,96453.47
2022-11-04T09:40:37.874Z,96454.44
2022-11-04T09:45:43.955Z,96447.47
2022-11-04T09:50:51.925Z,96447.97
2022-11-04T09:56:01.064Z,96441.97
2022-11-04T10:01:13.837Z,96443.25
2022-11-04T10:06:30.795Z,96443.66
2022-11-04T10:11:42.426Z,96443.34
2022-11-04T10:17:04.634Z,96436.47
2022-11-04T10:22:16.909Z,96450.03
2022-11-04T10:27:26.712Z,96442.72
2022-11-04T10:32:36.395Z,96426.91
2022-11-04T10:37:40.271Z,96414.41
2022-11-04T10:42:45.256Z,96390.19
2022-11-04T10:47:56.620Z,96399.56
2022-11-04T10:53:13.676Z,96403.66
2022-11-04T10:58:24.073Z,96423.03
2022-11-04T11:03:32.680Z,96433.06
2022-11-04T11:08:38.306Z,96428.41
2022-11-04T11:13:45.600Z,96424.59
2022-11-04T11:19:14.090Z,96419.63
2022-11-04T11:24:21.805Z,96412.84
2022-11-04T11:29:29.483Z,96402.81
2022-11-04T11:34:39.493Z,96401.28
2022-11-04T11:39:45.251Z,96401.13
2022-11-04T11:44:54.474Z,96405.16
2022-11-04T11:50:07.453Z,96411.81
2022-11-04T11:55:17.344Z,96415.00
2022-11-04T12:11:16.798Z,96413.81
2022-11-04T12:16:34.949Z,96431.13
2022-11-04T12:21:44.516Z,96423.53
2022-11-04T12:26:56.699Z,96423.88
2022-11-04T12:32:12.444Z,96419.13
2022-11-04T12:37:28.024Z,96410.53
2022-11-04T12:42:44.045Z,96399.50
2022-11-04T12:47:50.186Z,96409.84
2022-11-04T12:53:11.944Z,96421.44
2022-11-04T12:58:32.759Z,96438.38
2022-11-04T13:03:46.294Z,96449.16
2022-11-04T13:08:52.731Z,96439.09
2022-11-04T13:14:03.495Z,96444.25
2022-11-04T13:19:17.559Z,96450.38
2022-11-04T13:24:30.362Z,96453.53
2022-11-04T13:29:37.009Z,96456.66
2022-11-04T13:34:52.776Z,96451.19
2022-11-04T13:40:00.401Z,96458.66
2022-11-04T13:45:14.331Z,96465.50
2022-11-04T13:50:35.472Z,96470.94
2022-11-04T13:55:50.643Z,96482.06
2022-11-04T14:01:14.843Z,96488.00
2022-11-04T14:06:53.510Z,96480.72
2022-11-04T14:12:20.610Z,96492.50
2022-11-04T14:18:01.544Z,96497.81
2022-11-04T14:23:08.940Z,96493.59
2022-11-04T14:28:26.989Z,96504.06
2022-11-04T14:33:35.663Z,96506.34
2022-11-04T14:38:42.065Z,96505.91
2022-11-04T14:43:47.746Z,96508.94
2022-11-04T14:48:54.606Z,96509.72
2022-11-04T14:54:07.098Z,96506.78
2022-11-04T14:59:23.036Z,96520.44
2022-11-04T15:04:29.550Z,96528.47
2022-11-04T15:09:36.506Z,96542.25
2022-11-04T15:14:40.497Z,96543.75
2022-11-04T15:19:44.186Z,96543.66
2022-11-04T15:24:50.621Z,96553.81
2022-11-04T15:29:55.253Z,96540.34
2022-11-04T15:34:59.601Z,96559.16
2022-11-04T15:40:07.383Z,96556.16
2022-11-04T15:45:29.498Z,96548.47
2022-11-04T15:50:34.870Z,96553.88
2022-11-04T15:55:41.012Z,96559.47
2022-11-04T16:00:53.002Z,96566.16
2022-11-04T16:06:05.025Z,96575.66
2022-11-04T16:11:19.319Z,96588.44
2022-11-04T16:16:25.789Z,96592.44
2022-11-04T16:21:30.890Z,96598.81
2022-11-04T16:26:40.076Z,96600.38
2022-11-04T16:31:43.637Z,96606.81
2022-11-04T16:36:47.188Z,96622.38
2022-11-04T16:41:52.103Z,96615.25
2022-11-04T16:46:57.167Z,96619.56
2022-11-04T16:52:03.485Z,96633.38
2022-11-04T16:57:12.009Z,96631.88
2022-11-04T17:02:22.355Z,96635.84
2022-11-04T17:07:40.515Z,96635.31
2022-11-04T17:12:50.883Z,96640.75
2022-11-04T17:17:54.382Z,96645.63
2022-11-04T17:22:58.460Z,96659.63
2022-11-04T17:28:04.193Z,96652.53
2022-11-04T17:33:08.824Z,96663.50
2022-11-04T17:38:13.141Z,96655.84
2022-11-04T17:43:35.412Z,96654.19
2022-11-04T17:48:39.115Z,96650.69
2022-11-04T17:53:42.695Z,96657.13
2022-11-04T17:58:50.502Z,96660.13
2022-11-04T18:03:54.833Z,96665.41
2022-11-04T18:08:59.153Z,96675.84
2022-11-04T18:14:03.965Z,96674.47
2022-11-04T18:19:07.523Z,96681.41
2022-11-04T18:24:11.323Z,96674.59
2022-11-04T18:29:17.438Z,96683.63
2022-11-04T18:34:21.373Z,96694.31
2022-11-04T18:39:25.752Z,96697.13
2022-11-04T18:44:31.109Z,96694.56
2022-11-04T18:49:34.727Z,96703.81
2022-11-04T18:54:38.493Z,96710.56
2022-11-04T18:59:43.408Z,96707.16
2022-11-04T19:04:46.852Z,96714.25
2022-11-04T19:09:50.351Z,96730.31
2022-11-04T19:14:55.178Z,96744.34
2022-11-04T19:19:58.614Z,96747.94
2022-11-04T19:25:02.185Z,96750.25
2022-11-04T19:30:08.327Z,96757.47
2022-11-04T19:35:11.871Z,96761.13
2022-11-04T19:40:15.546Z,96763.66
2022-11-04T19:45:20.636Z,96783.31
2022-11-04T19:50:24.134Z,96788.78
2022-11-04T19:55:27.586Z,96793.94
2022-11-04T20:00:33.870Z,96796.81
2022-11-04T20:05:39.248Z,96801.13
2022-11-04T20:10:44.468Z,96807.69
2022-11-04T20:15:49.586Z,96808.63
2022-11-04T20:20:53.337Z,96815.34
2022-11-04T20:25:56.988Z,96825.91
2022-11-04T20:31:01.864Z,96840.34
2022-11-04T20:36:05.679Z,96847.88
2022-11-04T20:41:11.969Z,96858.44
2022-11-04T20:46:19.577Z,96857.81
2022-11-04T20:51:28.573Z,96870.69
2022-11-04T20:56:33.601Z,96864.94
2022-11-04T21:01:40.713Z,96880.00
2022-11-04T21:06:44.347Z,96877.03
2022-11-04T21:11:48.369Z,96888.16
2022-11-04T21:16:53.632Z,96884.44
2022-11-04T21:21:57.752Z,96892.94
2022-11-04T21:27:01.984Z,96894.50
2022-11-04T21:32:07.566Z,96894.97
2022-11-04T21:37:11.242Z,96891.25
2022-11-04T21:42:14.806Z,96891.97
2022-11-04T21:47:19.979Z,96901.16
2022-11-04T21:52:23.750Z,96911.72
2022-11-04T21:57:27.387Z,96917.47
2022-11-04T22:02:32.416Z,96921.69
2022-11-04T22:07:50.008Z,96916.25
2022-11-04T22:12:53.444Z,96916.50
2022-11-04T22:17:58.168Z,96911.00
2022-11-04T22:23:01.547Z,96922.84
2022-11-04T22:28:05.187Z,96923.47
2022-11-04T22:33:10.570Z,96924.31
2022-11-04T22:38:14.323Z,96932.56
2022-11-04T22:43:17.796Z,96931.25
2022-11-04T22:48:23.268Z,96932.03
2022-11-04T22:53:27.062Z,96941.63
2022-11-04T22:58:32.141Z,96936.59
2022-11-04T23:03:36.918Z,96946.66
2022-11-04T23:08:42.390Z,96947.28
2022-11-04T23:14:08.327Z,96938.38
2022-11-04T23:19:13.235Z,96944.59
2022-11-04T23:24:33.961Z,96945.56
2022-11-04T23:29:55.102Z,96949.28
2022-11-04T23:35:17.310Z,96949.72
2022-11-04T23:40:20.679Z,96955.16
2022-11-04T23:45:42.190Z,96963.78
2022-11-04T23:51:04.174Z,96970.59
2022-11-04T23:56:29.206Z,96970.44
